createdAt,value
2022-09-26T00:01:07.598Z,95390.28
2022-09-26T00:03:36.231Z,95384.47
2022-09-26T00:06:05.128Z,95386.09
2022-09-26T00:08:33.714Z,95381.38
2022-09-26T00:11:03.291Z,95383.03
2022-09-26T00:13:32.517Z,95378.03
2022-09-26T00:16:02.395Z,95379.47
2022-09-26T00:18:30.597Z,95370.84
2022-09-26T00:21:04.787Z,95373.53
2022-09-26T00:23:32.871Z,95369.19
2022-09-26T00:26:01.131Z,95372.75
2022-09-26T00:28:29.407Z,95370.16
2022-09-26T00:30:58.045Z,95364.06
2022-09-26T00:33:27.707Z,95365.53
2022-09-26T00:35:56.545Z,95358.75
2022-09-26T00:38:24.999Z,95357.81
2022-09-26T00:40:53.845Z,95359.56
2022-09-26T00:43:33.152Z,95355.53
2022-09-26T00:46:12.168Z,95364.88
2022-09-26T00:48:42.748Z,95349.44
2022-09-26T00:51:10.919Z,95346.88
2022-09-26T00:53:45.367Z,95333.31
2022-09-26T00:56:16.612Z,95352.47
2022-09-26T00:58:47.305Z,95339.13
2022-09-26T01:01:16.366Z,95342.63
2022-09-26T01:03:46.584Z,95348.38
2022-09-26T01:06:16.139Z,95338.53
2022-09-26T01:08:47.958Z,95331.41
2022-09-26T01:11:17.194Z,95342.00
2022-09-26T01:13:45.885Z,95318.00
2022-09-26T01:16:14.145Z,95339.94
2022-09-26T01:18:42.311Z,95332.22
2022-09-26T01:21:35.028Z,95331.94
2022-09-26T01:24:37.857Z,95322.03
2022-09-26T01:27:28.652Z,95328.41
2022-09-26T01:30:10.914Z,95327.09
2022-09-26T01:33:03.000Z,95327.88
2022-09-26T01:35:49.927Z,95324.50
2022-09-26T01:38:24.634Z,95322.88
2022-09-26T01:41:06.218Z,95324.78
2022-09-26T01:43:37.377Z,95325.44
2022-09-26T01:46:15.243Z,95321.28
2022-09-26T01:48:48.427Z,95322.88
2022-09-26T01:51:21.375Z,95319.50
2022-09-26T01:53:53.982Z,95314.34
2022-09-26T01:56:24.912Z,95312.03
2022-09-26T01:58:54.979Z,95306.75
2022-09-26T02:01:26.953Z,95308.34
2022-09-26T02:03:59.657Z,95308.03
2022-09-26T02:06:31.802Z,95309.69
2022-09-26T02:09:03.488Z,95304.53
2022-09-26T02:11:31.764Z,95295.66
2022-09-26T02:14:03.936Z,95322.22
2022-09-26T02:16:37.707Z,95298.72
2022-09-26T02:19:10.295Z,95298.59
2022-09-26T02:21:38.520Z,95306.13
2022-09-26T02:24:07.025Z,95302.47
2022-09-26T02:26:35.118Z,95297.34
2022-09-26T02:29:03.380Z,95290.56
2022-09-26T02:31:37.393Z,95292.34
2022-09-26T02:34:06.123Z,95293.28
2022-09-26T02:36:35.643Z,95291.03
2022-09-26T02:39:03.928Z,95290.53
2022-09-26T02:41:37.768Z,95296.47
2022-09-26T02:44:21.008Z,95294.84
2022-09-26T02:47:01.027Z,95287.28
2022-09-26T02:49:46.223Z,95288.91
2022-09-26T02:52:21.954Z,95283.94
2022-09-26T02:54:55.263Z,95291.88
2022-09-26T02:57:32.005Z,95285.81
2022-09-26T03:00:04.286Z,95279.84
2022-09-26T03:02:39.138Z,95287.44
2022-09-26T03:05:11.462Z,95288.09
2022-09-26T03:07:45.200Z,95281.59
2022-09-26T03:10:13.975Z,95278.25
2022-09-26T03:12:44.509Z,95275.25
2022-09-26T03:15:14.394Z,95277.66
2022-09-26T03:17:53.591Z,95273.66
2022-09-26T03:20:24.679Z,95265.06
2022-09-26T03:22:52.882Z,95266.16
2022-09-26T03:25:26.605Z,95248.13
2022-09-26T03:27:57.331Z,95261.00
2022-09-26T03:30:29.763Z,95266.97
2022-09-26T03:33:03.965Z,95263.06
2022-09-26T03:35:38.195Z,95262.56
2022-09-26T03:38:16.173Z,95260.81
2022-09-26T03:40:49.047Z,95258.66
2022-09-26T03:43:25.330Z,95263.09
2022-09-26T03:45:58.108Z,95250.66
2022-09-26T03:48:29.217Z,95268.34
2022-09-26T03:50:57.569Z,95266.22
2022-09-26T03:53:30.129Z,95259.44
2022-09-26T03:56:04.405Z,95271.13
2022-09-26T03:58:32.435Z,95266.44
2022-09-26T04:01:04.863Z,95267.16
2022-09-26T04:03:36.090Z,95266.59
2022-09-26T04:06:04.551Z,95268.78
2022-09-26T04:08:32.643Z,95268.94
2022-09-26T04:11:04.220Z,95256.81
2022-09-26T04:16:21.339Z,95261.50
2022-09-26T04:18:51.308Z,95260.69
2022-09-26T04:21:19.354Z,95258.44
2022-09-26T04:23:47.628Z,95261.44
2022-09-26T04:26:22.770Z,95263.63
2022-09-26T04:28:55.348Z,95252.56
2022-09-26T04:31:24.405Z,95254.44
2022-09-26T04:33:54.949Z,95256.50
2022-09-26T04:36:23.432Z,95252.19
2022-09-26T04:38:51.564Z,95253.53
2022-09-26T04:41:20.856Z,95255.13
2022-09-26T04:43:49.566Z,95255.78
2022-09-26T04:46:23.624Z,95253.00
2022-09-26T04:48:56.505Z,95250.81
2022-09-26T04:51:25.791Z,95252.25
2022-09-26T04:53:53.910Z,95249.44
2022-09-26T04:56:23.525Z,95253.28
2022-09-26T04:58:51.627Z,95252.06
2022-09-26T05:01:21.440Z,95247.75
2022-09-26T05:03:50.723Z,95261.38
2022-09-26T05:06:20.767Z,95250.81
2022-09-26T05:08:49.240Z,95256.34
2022-09-26T05:11:18.537Z,95255.22
2022-09-26T05:13:51.244Z,95256.69
2022-09-26T05:16:22.644Z,95262.63
2022-09-26T05:18:51.901Z,95252.19
2022-09-26T05:21:21.423Z,95254.66
2022-09-26T05:24:06.981Z,95255.44
2022-09-26T05:26:40.799Z,95259.19
2022-09-26T05:29:09.529Z,95250.50
2022-09-26T05:31:38.455Z,95255.06
2022-09-26T05:34:07.673Z,95253.38
2022-09-26T05:36:37.402Z,95250.38
2022-09-26T05:39:26.837Z,95255.34
2022-09-26T05:41:54.333Z,95256.69
2022-09-26T05:44:22.642Z,95258.00
2022-09-26T05:46:51.364Z,95258.72
2022-09-26T05:49:19.460Z,95265.03
2022-09-26T05:51:48.862Z,95260.09
2022-09-26T05:54:16.884Z,95259.31
2022-09-26T05:56:45.239Z,95260.19
2022-09-26T05:59:13.237Z,95262.03
2022-09-26T06:01:41.387Z,95254.22
2022-09-26T06:04:11.806Z,95254.56
2022-09-26T06:06:40.375Z,95252.34
2022-09-26T06:09:09.786Z,95252.22
2022-09-26T06:11:37.839Z,95245.50
2022-09-26T06:14:07.219Z,95248.91
2022-09-26T06:16:35.334Z,95247.84
2022-09-26T06:19:03.406Z,95248.22
2022-09-26T06:21:31.398Z,95256.16
2022-09-26T06:23:59.460Z,95256.84
2022-09-26T06:26:29.229Z,95251.56
2022-09-26T06:29:00.430Z,95256.59
2022-09-26T06:31:29.057Z,95260.16
2022-09-26T06:33:58.618Z,95255.69
2022-09-26T06:36:26.960Z,95261.31
2022-09-26T06:38:56.059Z,95248.28
2022-09-26T06:41:26.568Z,95251.66
2022-09-26T06:43:56.131Z,95249.72
2022-09-26T06:46:24.222Z,95253.41
2022-09-26T06:48:52.442Z,95262.78
2022-09-26T06:51:20.480Z,95258.75
2022-09-26T06:53:48.471Z,95261.94
2022-09-26T06:56:16.761Z,95266.31
2022-09-26T06:58:45.376Z,95268.38
2022-09-26T07:01:15.238Z,95265.50
2022-09-26T07:03:45.927Z,95263.38
2022-09-26T07:06:15.032Z,95264.22
2022-09-26T07:09:01.556Z,95261.81
2022-09-26T07:11:41.958Z,95270.66
2022-09-26T07:14:18.866Z,95273.06
2022-09-26T07:16:49.673Z,95271.13
2022-09-26T07:19:18.638Z,95276.31
2022-09-26T07:21:46.898Z,95273.88
2022-09-26T07:24:15.052Z,95269.53
2022-09-26T07:26:43.398Z,95270.66
2022-09-26T07:29:12.465Z,95274.00
2022-09-26T07:31:40.719Z,95284.19
2022-09-26T07:34:14.640Z,95280.31
2022-09-26T07:36:47.043Z,95280.16
2022-09-26T07:39:15.166Z,95282.22
2022-09-26T07:41:45.949Z,95286.25
2022-09-26T07:47:19.884Z,95284.50
2022-09-26T07:50:06.519Z,95274.19
2022-09-26T07:52:34.562Z,95283.31
2022-09-26T07:55:02.607Z,95282.91
2022-09-26T07:57:33.108Z,95281.38
2022-09-26T08:00:01.462Z,95278.78
2022-09-26T08:02:34.417Z,95291.38
2022-09-26T08:05:05.498Z,95282.06
2022-09-26T08:07:35.506Z,95286.34
2022-09-26T08:10:04.420Z,95275.56
2022-09-26T08:12:36.290Z,95280.22
2022-09-26T08:15:06.265Z,95291.78
2022-09-26T08:17:34.543Z,95297.53
2022-09-26T08:20:04.716Z,95298.13
2022-09-26T08:22:32.772Z,95293.63
2022-09-26T08:25:01.351Z,95301.41
2022-09-26T08:27:33.615Z,95302.84
2022-09-26T08:30:02.748Z,95299.50
2022-09-26T08:32:32.478Z,95290.53
2022-09-26T08:35:00.712Z,95292.06
2022-09-26T08:37:31.225Z,95293.72
2022-09-26T08:40:01.134Z,95293.81
2022-09-26T08:42:42.894Z,95285.31
2022-09-26T08:45:47.708Z,95286.34
2022-09-26T08:48:27.239Z,95284.72
2022-09-26T08:50:59.356Z,95289.88
2022-09-26T08:53:32.775Z,95293.75
2022-09-26T08:56:02.537Z,95295.41
2022-09-26T08:58:39.068Z,95297.63
2022-09-26T09:01:14.388Z,95295.69
2022-09-26T09:03:51.323Z,95295.41
2022-09-26T09:06:20.494Z,95300.13
2022-09-26T09:08:51.771Z,95308.75
2022-09-26T09:11:27.867Z,95299.44
2022-09-26T09:14:07.877Z,95297.00
2022-09-26T09:16:51.516Z,95299.56
2022-09-26T09:19:28.434Z,95296.50
2022-09-26T09:22:08.982Z,95296.00
2022-09-26T09:24:50.861Z,95294.06
2022-09-26T09:30:19.106Z,95278.06
2022-09-26T09:32:51.267Z,95275.25
2022-09-26T09:35:22.217Z,95278.34
2022-09-26T09:37:52.266Z,95274.16
2022-09-26T09:40:28.104Z,95275.47
2022-09-26T09:43:01.226Z,95275.16
2022-09-26T09:45:32.072Z,95271.50
2022-09-26T09:48:00.122Z,95280.63
2022-09-26T09:50:36.565Z,95274.75
2022-09-26T09:53:14.153Z,95260.22
2022-09-26T09:55:52.535Z,95264.41
2022-09-26T09:58:30.194Z,95265.09
2022-09-26T10:01:03.228Z,95279.41
2022-09-26T10:03:37.977Z,95264.47
2022-09-26T10:06:45.199Z,95263.31
2022-09-26T10:09:00.657Z,95268.16
2022-09-26T10:11:52.657Z,95268.63
2022-09-26T10:14:28.716Z,95260.88
2022-09-26T10:17:20.657Z,95249.31
2022-09-26T10:19:49.046Z,95268.84
2022-09-26T10:22:26.041Z,95271.47
2022-09-26T10:25:00.639Z,95272.47
2022-09-26T10:27:37.016Z,95273.28
2022-09-26T10:30:10.130Z,95273.97
2022-09-26T10:32:47.389Z,95280.91
2022-09-26T10:35:20.872Z,95272.38
2022-09-26T10:37:52.310Z,95262.34
2022-09-26T10:40:44.666Z,95272.97
2022-09-26T10:43:30.672Z,95275.50
2022-09-26T10:46:07.836Z,95264.88
2022-09-26T10:48:43.404Z,95256.28
2022-09-26T10:51:12.049Z,95258.41
2022-09-26T10:53:41.597Z,95271.56
2022-09-26T10:56:12.679Z,95259.22
2022-09-26T10:58:44.901Z,95250.41
2022-09-26T11:01:21.051Z,95244.50
2022-09-26T11:03:51.990Z,95242.88
2022-09-26T11:06:35.387Z,95244.03
2022-09-26T11:09:05.170Z,95249.66
2022-09-26T11:11:35.236Z,95249.56
2022-09-26T11:14:07.634Z,95243.84
2022-09-26T11:16:51.060Z,95242.88
2022-09-26T11:19:35.709Z,95241.28
2022-09-26T11:22:11.491Z,95250.16
2022-09-26T11:24:46.038Z,95256.66
2022-09-26T11:27:23.799Z,95247.84
2022-09-26T11:29:56.282Z,95240.75
2022-09-26T11:32:29.719Z,95237.28
2022-09-26T11:35:02.413Z,95250.69
2022-09-26T11:37:47.640Z,95252.03
2022-09-26T11:40:28.162Z,95242.16
2022-09-26T11:43:11.051Z,95235.66
2022-09-26T11:45:54.312Z,95235.59
2022-09-26T11:48:33.048Z,95232.31
2022-09-26T11:51:04.398Z,95235.28
2022-09-26T11:53:56.699Z,95228.88
2022-09-26T11:56:36.517Z,95210.06
2022-09-26T11:59:18.898Z,95223.13
2022-09-26T12:01:55.134Z,95216.34
2022-09-26T12:04:37.399Z,95224.41
2022-09-26T12:07:11.171Z,95210.91
2022-09-26T12:10:05.680Z,95205.28
2022-09-26T12:12:42.480Z,95211.78
2022-09-26T12:15:21.896Z,95213.69
2022-09-26T12:18:01.987Z,95206.75
2022-09-26T12:20:36.221Z,95204.75
2022-09-26T12:23:10.808Z,95205.44
2022-09-26T12:25:48.971Z,95195.34
2022-09-26T12:28:37.787Z,95206.03
2022-09-26T12:31:14.970Z,95206.28
2022-09-26T12:34:10.177Z,95197.28
2022-09-26T12:36:47.963Z,95195.50
2022-09-26T12:39:47.334Z,95182.31
2022-09-26T12:42:25.572Z,95181.94
2022-09-26T12:45:03.324Z,95178.81
2022-09-26T12:48:07.422Z,95171.47
2022-09-26T12:50:44.656Z,95177.78
2022-09-26T12:53:45.851Z,95169.66
2022-09-26T12:56:22.169Z,95164.72
2022-09-26T12:59:12.345Z,95155.06
2022-09-26T13:01:50.234Z,95148.97
2022-09-26T13:04:44.070Z,95143.84
2022-09-26T13:07:22.384Z,95136.72
2022-09-26T13:10:20.830Z,95147.44
2022-09-26T13:13:04.461Z,95143.47
2022-09-26T13:15:38.134Z,95134.00
2022-09-26T13:18:12.422Z,95131.88
2022-09-26T13:20:44.990Z,95130.06
2022-09-26T13:23:20.516Z,95127.47
2022-09-26T13:25:51.297Z,95121.78
2022-09-26T13:28:21.789Z,95107.59
2022-09-26T13:30:53.570Z,95113.38
2022-09-26T13:33:24.212Z,95109.34
2022-09-26T13:35:56.242Z,95103.16
2022-09-26T13:38:35.166Z,95101.31
2022-09-26T13:41:11.332Z,95104.31
2022-09-26T13:43:50.653Z,95096.66
2022-09-26T13:46:28.450Z,95094.81
2022-09-26T13:49:03.409Z,95095.28
2022-09-26T13:51:40.278Z,95093.31
2022-09-26T13:54:18.202Z,95107.75
2022-09-26T13:56:50.122Z,95101.59
2022-09-26T13:59:34.421Z,95090.91
2022-09-26T14:02:24.841Z,95096.09
2022-09-26T14:04:54.028Z,95096.31
2022-09-26T14:07:44.634Z,95092.31
2022-09-26T14:10:42.246Z,95093.53
2022-09-26T14:13:20.434Z,95092.09
2022-09-26T14:16:03.854Z,95093.50
2022-09-26T14:18:57.864Z,95096.47
2022-09-26T14:21:34.930Z,95094.91
2022-09-26T14:24:31.787Z,95096.09
2022-09-26T14:27:39.507Z,95096.06
2022-09-26T14:30:27.830Z,95084.22
2022-09-26T14:33:02.187Z,95081.56
2022-09-26T14:35:32.726Z,95085.94
2022-09-26T14:38:02.476Z,95079.44
2022-09-26T14:40:33.369Z,95066.72
2022-09-26T14:43:07.562Z,95068.38
2022-09-26T14:45:49.791Z,95068.41
2022-09-26T14:48:30.580Z,95059.63
2022-09-26T14:51:02.004Z,95049.91
2022-09-26T14:53:35.336Z,95049.94
2022-09-26T14:56:06.201Z,95047.28
2022-09-26T14:58:47.703Z,95050.44
2022-09-26T15:01:21.189Z,95037.38
2022-09-26T15:03:55.523Z,95038.22
2022-09-26T15:06:26.536Z,95036.59
2022-09-26T15:08:56.439Z,95038.28
2022-09-26T15:11:32.778Z,95040.19
2022-09-26T15:14:12.717Z,95025.53
2022-09-26T15:16:48.310Z,95036.34
2022-09-26T15:19:19.443Z,95033.19
2022-09-26T15:21:51.765Z,95033.91
2022-09-26T15:24:26.501Z,95023.03
2022-09-26T15:26:55.687Z,95019.91
2022-09-26T15:29:24.172Z,95017.44
2022-09-26T15:31:57.748Z,94997.63
2022-09-26T15:34:34.539Z,95014.63
2022-09-26T15:37:10.219Z,95009.03
2022-09-26T15:39:42.917Z,95001.56
2022-09-26T15:42:46.494Z,95003.16
2022-09-26T15:45:25.608Z,95002.66
2022-09-26T15:47:56.509Z,95004.72
2022-09-26T15:50:28.271Z,95010.09
2022-09-26T15:53:01.379Z,95002.53
2022-09-26T15:55:33.569Z,95000.31
2022-09-26T15:58:04.129Z,95004.53
2022-09-26T16:00:33.945Z,95001.00
2022-09-26T16:03:19.921Z,95004.31
2022-09-26T16:05:50.765Z,94997.16
2022-09-26T16:08:23.122Z,94996.44
2022-09-26T16:10:58.157Z,94993.63
2022-09-26T16:13:29.086Z,94998.09
2022-09-26T16:16:04.255Z,95004.75
2022-09-26T16:18:40.118Z,95002.69
2022-09-26T16:21:19.809Z,95012.47
2022-09-26T16:23:49.630Z,95016.34
2022-09-26T16:26:41.197Z,95020.69
2022-09-26T16:29:09.407Z,95024.19
2022-09-26T16:31:39.612Z,95023.41
2022-09-26T16:34:21.298Z,95008.88
2022-09-26T16:36:50.322Z,95006.00
2022-09-26T16:39:22.361Z,95002.34
2022-09-26T16:42:01.846Z,95004.63
2022-09-26T16:44:36.039Z,95000.34
2022-09-26T16:47:07.343Z,94997.84
2022-09-26T16:49:48.524Z,95003.25
2022-09-26T16:52:27.554Z,94998.06
2022-09-26T16:54:56.512Z,95005.00
2022-09-26T16:57:27.136Z,95000.16
2022-09-26T17:00:15.879Z,94997.78
2022-09-26T17:02:43.276Z,95005.38
2022-09-26T17:05:18.830Z,95012.13
2022-09-26T17:07:49.290Z,95011.34
2022-09-26T17:10:19.523Z,95009.94
2022-09-26T17:12:50.591Z,95003.00
2022-09-26T17:15:21.252Z,95005.28
2022-09-26T17:17:54.110Z,95009.47
2022-09-26T17:20:24.070Z,95002.41
2022-09-26T17:22:54.434Z,95010.47
2022-09-26T17:25:25.337Z,95016.72
2022-09-26T17:27:55.443Z,95014.94
2022-09-26T17:30:23.608Z,95022.63
2022-09-26T17:32:54.512Z,95021.69
2022-09-26T17:35:27.738Z,95012.56
2022-09-26T17:37:56.313Z,95016.56
2022-09-26T17:40:27.138Z,95022.00
2022-09-26T17:42:57.231Z,95018.66
2022-09-26T17:45:32.635Z,95023.16
2022-09-26T17:48:02.437Z,95019.28
2022-09-26T17:50:33.150Z,95027.00
2022-09-26T17:53:02.705Z,95019.28
2022-09-26T17:55:33.633Z,95024.91
2022-09-26T17:58:03.177Z,95012.06
2022-09-26T18:00:34.604Z,95025.88
2022-09-26T18:03:04.432Z,95017.03
2022-09-26T18:05:38.382Z,95019.13
2022-09-26T18:08:10.257Z,95016.41
2022-09-26T18:10:41.949Z,95016.38
2022-09-26T18:13:13.694Z,95006.09
2022-09-26T18:15:42.275Z,95007.41
2022-09-26T18:18:13.188Z,95009.00
2022-09-26T18:20:42.768Z,95007.88
2022-09-26T18:23:15.826Z,95002.56
2022-09-26T18:25:44.710Z,94996.44
2022-09-26T18:28:15.574Z,94995.63
2022-09-26T18:30:47.689Z,95004.31
2022-09-26T18:33:17.789Z,95005.91
2022-09-26T18:35:48.920Z,95006.88
2022-09-26T18:38:17.085Z,95012.69
2022-09-26T18:40:50.234Z,95021.66
2022-09-26T18:43:20.837Z,94999.81
2022-09-26T18:45:49.176Z,95007.53
2022-09-26T18:48:23.814Z,95005.91
2022-09-26T18:50:53.741Z,94999.97
2022-09-26T18:53:26.981Z,94993.22
2022-09-26T18:56:12.722Z,94995.47
2022-09-26T18:58:40.993Z,95006.56
2022-09-26T19:01:13.329Z,95016.50
2022-09-26T19:03:43.045Z,95010.31
2022-09-26T19:06:16.372Z,95022.53
2022-09-26T19:08:45.830Z,95015.09
2022-09-26T19:11:17.331Z,95007.00
2022-09-26T19:13:47.015Z,95013.63
2022-09-26T19:16:15.775Z,94999.00
2022-09-26T19:18:44.352Z,95013.97
2022-09-26T19:21:18.954Z,95003.53
2022-09-26T19:23:47.732Z,94999.03
2022-09-26T19:26:23.722Z,95009.13
2022-09-26T19:28:52.138Z,95000.25
2022-09-26T19:31:20.896Z,95004.28
2022-09-26T19:33:50.184Z,95007.19
2022-09-26T19:36:20.288Z,95010.88
2022-09-26T19:38:48.510Z,95006.41
2022-09-26T19:41:16.867Z,95005.47
2022-09-26T19:43:45.166Z,95011.53
2022-09-26T19:46:15.699Z,94980.06
2022-09-26T19:48:43.933Z,94995.47
2022-09-26T19:51:14.063Z,94992.78
2022-09-26T19:53:43.824Z,94989.56
2022-09-26T19:56:12.036Z,94982.19
2022-09-26T19:58:40.533Z,94982.03
2022-09-26T20:01:16.094Z,94979.47
2022-09-26T20:03:45.138Z,94980.28
2022-09-26T20:06:15.428Z,94979.63
2022-09-26T20:08:45.004Z,94975.75
2022-09-26T20:11:13.581Z,94972.84
2022-09-26T20:13:59.058Z,94975.25
2022-09-26T20:16:27.725Z,94970.13
2022-09-26T20:18:56.484Z,94969.78
2022-09-26T20:21:27.167Z,94963.81
2022-09-26T20:24:00.387Z,94971.31
2022-09-26T20:26:29.483Z,94970.66
2022-09-26T20:28:58.092Z,94964.88
2022-09-26T20:31:27.909Z,94960.25
2022-09-26T20:33:59.287Z,94959.09
2022-09-26T20:36:29.384Z,94954.44
2022-09-26T20:39:00.496Z,94949.72
2022-09-26T20:41:32.143Z,94950.84
2022-09-26T20:44:03.714Z,94941.47
2022-09-26T20:46:34.465Z,94954.69
2022-09-26T20:49:05.747Z,94953.47
2022-09-26T20:51:35.257Z,94941.63
2022-09-26T20:54:06.654Z,94936.50
2022-09-26T20:56:34.825Z,94937.34
2022-09-26T20:59:03.086Z,94936.88
2022-09-26T21:01:32.056Z,94929.84
2022-09-26T21:04:01.774Z,94919.44
2022-09-26T21:06:33.816Z,94923.91
2022-09-26T21:09:02.753Z,94918.44
2022-09-26T21:11:32.329Z,94923.56
2022-09-26T21:14:00.671Z,94921.31
2022-09-26T21:16:28.959Z,94905.31
2022-09-26T21:18:57.292Z,94920.09
2022-09-26T21:21:27.769Z,94922.34
2022-09-26T21:23:56.134Z,94918.16
2022-09-26T21:26:25.884Z,94922.88
2022-09-26T21:28:56.385Z,94920.31
2022-09-26T21:31:26.944Z,94912.44
2022-09-26T21:33:56.390Z,94906.50
2022-09-26T21:36:25.596Z,94908.63
2022-09-26T21:38:54.917Z,94902.22
2022-09-26T21:41:23.498Z,94909.00
2022-09-26T21:43:55.818Z,94901.56
2022-09-26T21:46:24.588Z,94896.75
2022-09-26T21:48:53.177Z,94892.59
2022-09-26T21:51:22.512Z,94888.25
2022-09-26T21:53:54.303Z,94889.72
2022-09-26T21:56:25.708Z,94896.31
2022-09-26T21:58:55.671Z,94887.97
2022-09-26T22:01:24.215Z,94881.53
2022-09-26T22:03:53.291Z,94873.16
2022-09-26T22:06:21.691Z,94882.16
2022-09-26T22:08:50.344Z,94879.59
2022-09-26T22:11:18.974Z,94876.38
2022-09-26T22:13:47.200Z,94867.06
2022-09-26T22:16:17.360Z,94869.34
2022-09-26T22:18:45.647Z,94856.13
2022-09-26T22:21:14.115Z,94862.25
2022-09-26T22:23:42.890Z,94863.50
2022-09-26T22:26:11.412Z,94852.78
2022-09-26T22:28:39.941Z,94852.31
2022-09-26T22:31:08.392Z,94841.13
2022-09-26T22:33:38.108Z,94837.28
2022-09-26T22:36:06.718Z,94835.38
2022-09-26T22:38:36.504Z,94843.56
2022-09-26T22:41:06.550Z,94837.63
2022-09-26T22:43:35.348Z,94834.13
2022-09-26T22:46:04.943Z,94829.00
2022-09-26T22:48:34.377Z,94815.53
2022-09-26T22:51:04.220Z,94815.50
2022-09-26T22:53:33.057Z,94813.88
2022-09-26T22:56:05.561Z,94810.50
2022-09-26T22:58:36.756Z,94808.72
2022-09-26T23:01:06.745Z,94802.94
2022-09-26T23:03:35.244Z,94797.66
2022-09-26T23:06:06.017Z,94786.81
2022-09-26T23:08:34.897Z,94784.56
2022-09-26T23:11:03.768Z,94792.41
2022-09-26T23:13:33.230Z,94789.03
2022-09-26T23:16:05.456Z,94781.66
2022-09-26T23:18:34.850Z,94785.97
2022-09-26T23:21:08.681Z,94779.06
2022-09-26T23:23:37.351Z,94777.78
2022-09-26T23:26:06.467Z,94773.44
2022-09-26T23:28:35.430Z,94772.84
2022-09-26T23:31:07.743Z,94761.94
2022-09-26T23:33:36.508Z,94755.25
2022-09-26T23:36:05.070Z,94748.53
2022-09-26T23:38:35.634Z,94751.41
2022-09-26T23:41:04.037Z,94742.25
2022-09-26T23:43:32.302Z,94747.38
2022-09-26T23:46:00.704Z,94745.97
2022-09-26T23:48:29.239Z,94747.22
2022-09-26T23:50:57.776Z,94728.44
2022-09-26T23:53:26.345Z,94728.91
2022-09-26T23:56:03.670Z,94721.22
2022-09-26T23:58:31.914Z,94722.97
